Race Results for
Foray at Fort-Carmichael Training Systems
Ft Huachuca, AZ
(Event Information)
View By:
Cross Country on 03/14/2009

Note: Ranking points are NOT upgrade points. An explanation of ranking points can be found here.


Men - Single Speed - Advanced

 Place Points NameCity, StateTime USAC #BibTeam
1Randy Sooter   1:49:16  618 
2555.85Tom Ament   Phoenix, AZ1:51:34 238493  132 
3Corey Steingrecher   1:57:25  1008 
4590.01Mike Baltunis   Sierra Vista, AZ1:58:22 2450  658 
DNFGary Kuettel   dnf  51 

Men - Single Speed - Novice

 Place Points NameCity, StateTime USAC #BibTeam
1Chad Kasmar   1:12:06  440 
2Louie Carmona   1:15:23  164 
3Fred Ivy   1:17:09  438 
4Terry Jasper   1:21:34  44 
5Jose Avila   1:23:14  109 
6536.58Robert McNulty   Phoenix, AZ1:23:18 125724  476 
7Mark Fuller   1:24:14  131 
8Jay Sullivan   1:31:11  1018 
9576.63Guy Bell   Glendale, AZ1:36:40 142507  149 
10Whit Bissell   1:42:20  511 

Men - Rock Crusher

 Place Points NameCity, StateTime USAC #BibTeam
1Mike Ciasca   1:24:50  192 
2Keith Wilson   1:36:32  661 
3Jamie Seegert   1:42:28  648 
4Darren Schiffer   1:51:57  519 
5David Needham   2:07:33  487 
6John Mellin   2:31:13  60 

Men - Marathon

 Place Points NameCity, StateTime USAC #BibTeam
1Simon Happy   3:00:40  990 
2524.37Robert LaRoche   Scottsdale, AZ3:23:15 20390  454 
3533.75Clint Hosman   Mesa, AZ3:38:10 182454  42 
4543.13Chris Capages   Phoenix, AZ3:47:32 151400  199 
5552.51Robert Decot   Flagstaff, AZ3:47:42 9024  186 
6Jeff Handy   4:05:46  973 
7571.27Tom Crosetti   Mesa, AZ4:38:04 156147  97 
8580.65samuel cervantes   Pittsburgh, PA4:43:06 287559  165 
9590.03Pete Fioravanti   Scottsdale, AZ4:44:29 165635  193 
DNFBill Steen   dnf  92 
DNFJoseph Cliclener   dnf  995 
DNFDerek Eysenbach   Tucson, AZdnf 249143  197 

Men - Cat 3 - Junior - 1-10

 Place Points NameCity, StateTime USAC #BibTeam
1540.00David Polley   Peoria, AZ21:01 271015  297 
2Avery Baltunis   31:15:00  966 
3Bridges Hunter   49:49:00  310 

Men - Cat 3 - Junior - 11-12

 Place Points NameCity, StateTime USAC #BibTeam
1535.62Brandon McNulty   Phoenix, AZ30:11:00 275694  298 
2544.43Erowynn Maul-Latham   Flagstaff, AZ32:46:00 262632  315 
3Chase Foster   37:35:00  269 
4Douglas Steventon   42:32:00  992 
5Ross Lively   50:23:00  305 
6Westley Grove   58:25:00  300 

Men - Cat 3 - Junior - 13-14

 Place Points NameCity, StateTime USAC #BibTeam
1487.11Zachary Edwards   Flagstaff, AZ57:56:00 219148  284 
2Erik Mckinney   1:03:45  307 
3Matthew Glysson   1:04:10  410 
4Lukas Cronin   1:07:26  303 
5Jordan Camoriano   1:42:39  969 
6590.01aidan baltunis   Sierravista, AZ1:51:00 289745  657 
DNFCalvin Ivy   dnf  279 

Men - Cat 3 - Junior - 15-18

 Place Points NameCity, StateTime USAC #BibTeam
1Nick Key   50:11:00  443 
2452.57Kenny Polley   Peoria, AZ50:44:00 255203  274 
3477.76nate rees   Apache Jct, AZ54:13:00 287405  512 
4Tyler Sabyan   56:49:00  518 
5Alex Leblanc   57:47:00  1011 
6Larry Bieneman   1:14:17  325 
7Dallin Godfrey   1:14:17  325 
DNFAustin Hunter   dnf  312 

Men - Cat 3 - Senior - 19-29

 Place Points NameCity, StateTime USAC #BibTeam
1Jason Hall   45:38:00  419 
2Robert Rose   47:46:00  71 
3Miguel Carrazco   50:05:00  528 
4Phillip Reynolds   51:02:00  69 
5Ahel Telles   51:54:00  635 
6Matt Noble   57:21:00  96 
7Jesse Futrell   1:00:13  972 
8David Fonseed   1:06:08  1003 
9John E. Fricano   1:07:42  971 
10Tim Ash   1:08:37  1004 
11Ryan Davis   1:17:05  999 
12Chris Cossota   1:23:28  1002 
13Nick Brantley   1:43:08  659 
DNFDenny Eppard   dnf  

Men - Cat 3 - Masters - 30-39

 Place Points NameCity, StateTime USAC #BibTeam
1Cody Woods   48:22:00  555 
2Rob Griffin   50:31:00  1000 
3Ryan Mortensen   52:05:00  483 
4548.34Nick Nocella   Surprise, AZ52:07:00 288058  64 
5551.12Stephen Novy   Boston, MA52:39:00 259179  489 
6Noel Gomez   54:48:00  36 
7556.68David DeNitto   Phoenix, AZ54:49:00 257745  188 
8Michael Sainz   55:26:00  72 
9Jeremy Wolfe   58:11:00  1007 
10John Maciulla   1:01:53  467 
11Nicholas Brehm   1:05:00  606 
12Zac Seasly   1:08:03  522 
13Branden Jordan   1:13:17  1006 
14Michael Simon   1:21:37  987 
15Jake Shumate   1:24:49  77 
16Michael Walsh   1:25:03  988 
17Ken Hedrick   1:44:39  595 
18Joseph Pizzullo   1:45:27  983 
19Pret Wongmanee   3:13:00  554 

Men - Cat 3 - Masters - 40-49

 Place Points NameCity, StateTime USAC #BibTeam
1Brandon Rumpf   51:09:00  516 
2Paul Dellorco   53:23:00  187 
3Bill Lindberg   55:18:00  135 
4Paul Leetmae   56:20:00  977 
5Nick Sherwood   56:25:00  986 
6Patrick Kivin   56:34:00  660 
7Roy Key   57:56:00  442 
8Mike Sanchez   59:49:00  637 
9Bill Kirgis   1:00:06  50 
10Mike Tisdale   1:00:30  129 
11Damon Glysson   l:02:35  409 
12Bruce Lagman   1:03:01  452 
13Rich Myers   1:08:08  931 
14Jonathan Robins   1:10:49  578 
15Dan Contorno   1:30:09  566 
16Terry Staten   1:42:37  78 
DNFShawn Miller   dnf  980 

Men - Cat 3 - Masters - 50-59

 Place Points NameCity, StateTime USAC #BibTeam
1Ralph Jennings   56:04:00  128 
2Douglas Owens   1:00:24  982 
3565.00Joseph Miller   Phoenix, AZ1:03:35 255705  479 
4Greg Welch   1:03:55  1015 
5Tim Spicer   1:26:21  602 

Men - Cat 2 - Junior - 1-18

 Place Points NameCity, StateTime USAC #BibTeam
1Evan Broby   1:14:12  320 
2406.21Colton Taylor   Mesa, AZ1:17:17 271968  263 
3417.19Cypress Gorry   Brevard, NC1:18:10 219681  267 
4428.17TYLER SANDOVAL   Flagstaff, AZ1:18:22 272774  272 
5Travis Glysson   1:18:39  408 
6Travus Gildner   1:19:12  1021 
7Jacob Ivy   1:22:38  266 
8472.09Tyler Coplea   Chandler1:22:50 196300  285 
9483.07Cody Nickell   Sierravista, AZ1:28:58 280576  488 

Men - Cat 2 - Senior - 19-29

 Place Points NameCity, StateTime USAC #BibTeam
1Brian Trader   1:16:35  86 
2556.67Brad Knox   Lakewood, CO1:20:27 286511  447 
3Ryan Harasyn   1:32:30  1022 
4Derek Regan   1:36:57  991 

Men - Cat 2 - Master - 30-39

 Place Points NameCity, StateTime USAC #BibTeam
1540.00Kenneth Allen   Mesa, AZ1:11:31 282090  403 
2544.17Jason Welborn   Hattiesburg, MS1:11:31 203850  654 
3548.34Troy Burns   Vail, AZ1:11:48 239690  159 
4Bryan Rypkowski   1:14:07  985 
5James Gerber   1:14:07  35 
6Nathan Andrews   1:16:36  145 
7565.02Corey Coplea   Flagstaff, AZ1:17:25 181879  639 
8Eric Gust   1:18:08  417 
9Sonny Morgan   1:20:21  525 
10Jonathon Bird   1:20:42  151 
11Craig Gregory   1:23:03  103 
12George Hackett   1:23:39  418 
13Rodrigo Rada   1:30:48  614 
DNFLomax Boyd     154 
DNFRyan Hartman   Hood River, ORdnf 217895  425 

Men - Cat 2 - Master - 40-49

 Place Points NameCity, StateTime USAC #BibTeam
1473.25Lorne Mckay   Scottsdale, AZ1:13:05 271389  655 
2477.94Grant Taylor   Mesa, AZ1:17:50 210372  535 
3Dan Mills   1:19:18  61 
4Bill Morris   1:19:20  981 
5John Foster   1:19:22  401 
6Jeffrey Hallums   1:20:20  610 
7Keith Hubbard   1:21:32  432 
8George Sperry   1:21:33  120 
9510.77John Fritz   Chandler, AZ1:23:20 49933  402 
10515.46Dean Henthorn   Scottsdale, AZ1:23:21 234438  41 
11John Harvey   1:24:22  633 
12524.84Randy Harris   Tucson, AZ1:25:18 265192  424 
13David Peck   1:25:24  125 
14534.22Mark Venti   Mesa, AZ1:27:38 149570  541 
15Ken Ross   1:29:06  515 
16Jim Huntley   1:31:43  624 
17Scott Stocking   1:32:23  638 
18552.98Brian Roberts   Goodyear, AZ2:46:00 93633  514 
DNFBrad Harris   Tempe, AZdnf 203535  423 
DNFBrian Medower   Tucson, AZdnf 238724  477 

Men - Cat 2 - Master - 50-59

 Place Points NameCity, StateTime USAC #BibTeam
1Pat Hanning   1:24:48  1001 
2Mike Hartman   1:26:57  426 
3565.00Anson Gilbert   Mesa, AZ1:35:38 13219  407 
4Joe Miller   1:38:54  1014 
5590.00Michael Cronin   Cave Creek, AZ1:40:02 289037  28 
DNFJames Cox   Glendale, AZdnf 187634  180 

Men - Cat 2 - Masters - 60-99

 Place Points NameCity, StateTime USAC #BibTeam
1Robert McDermott   1:44:59  471 
2David Jordan   Taylor, AZ2:14:56 18270  133 

Men - Cat 1 - Junior - 1-18

 Place Points NameCity, StateTime USAC #BibTeam
1324.00Kallan Creager   Queen Creek, AZ1:51:04 255030  281 
2402.60Daniel Conley   Payson, AZ1:58:51 251389  273 
3481.20Sam Gross   Cave Creek2:16:57 292354  414 
DNFKyle Kraakevik   Scottsdale, AZdnf 232125  277 

Men - Cat 1 - Senior - 19-29

 Place Points NameCity, StateTime USAC #BibTeam
1372.91Michael Cronin   Tempe, AZ1:47:13 177765  181 
2425.29Zachary Keller   Mesa, AZ1:48:42 257387  48 
3477.67Chloe Forsman   Tucson, AZ1:56:39 214920  970 
4530.05Chris MacKay   Park City, UT1:57:37 228770  978 

Men - Cat 1 - Masters - 30-39

 Place Points NameCity, StateTime USAC #BibTeam
1506.59Kyle Akin   Tucson, AZ1:47:41 203522  138 
2512.51Timothy Allen   Tucson, AZ1:48:29 1440  139 
3518.43Robert Shaver   El Paso, TX1:48:47 56061  76 
4524.35Zach Stanford   Sedona, AZ1:50:17 192062  527 
5530.27Mike Wimbush   Phoenix, AZ1:50:24 285946  553 
6536.19Chris Latham   Flagstaff, AZ1:51:37 20460  54 
7542.11Nicholas Goodman   Fountain Hills, AZ1:51:38 212635  412 
8548.03Travis Waldron   Mesa, AZ1:52:16 148770  544 
9553.95Benji Kozuch   Tucson, AZ1:53:45 258737  570 
10559.87Michael Cline   Flagstaff, AZ1:59:57 108702  172 

Men - Cat 1 - Masters - 40-49

 Place Points NameCity, StateTime USAC #BibTeam
1477.57Daryll McKenzie   Marana, AZ1:47:59 138171  475 
2484.91Daniel De Mos   Tiburon, CA1:49:45 244512  185 
3492.25Eric Lynch   Phoenix, AZ1:50:03 263726  464 
4499.59Manny Ortiz   Waddell, AZ1:50:28 230172  494 
5506.93Arthur MacFarland   Cave Creek, AZ1:52:18 79108  466 
6514.27Craig Raney   Lake Havasu City, AZ1:54:36 138202  508 
7521.61Michael Perry   Scottsdale, AZ2:00:10 27806  497 
8528.95Carlos Zamora   Phoenix, AZ2:03:35 52255  557 
9536.29Kenneth Kimble   Scottsdale, AZ2:04:32 289034  444 
10543.63Chris Grove   Flagstaff, AZ2:10:02 14295  416 
DNFLane Sanders   Gilbert, AZdnf 196626  74 

Men - Cat 1 - Masters - 50-59

 Place Points NameCity, StateTime USAC #BibTeam
1513.46Wayne Gorry   Payson, AZ1:53:57 13741  91 
2523.10Keith Tomei   Tucson, AZ1:56:09 40955  538 
3532.74James Kirk   Tucson, AZ1:56:42 19256  446 
4542.38Michael Whitehead   Scottsdale, AZ2:02:30 289036  548 
5552.02John Camoriano   Mesa, AZ2:14:14 254809  161 

Men - Pro

 Place Points NameCity, StateTime USAC #BibTeam
1276.30Sam Schultz   Missoula, MT1:29:22 164788  1019 
2297.21Andy Schultz   Missoula, MT1:31:19 172534  1020 
3318.12Tim Allen   Golden, CO1:33:36 161831  20 
4Stefan Widmer   1:36:13  1023 
5359.94Travis (TJ) Woodruff   Prescott, AZ1:37:52 135975  989 
6380.85Lance Runyan   Mesa, AZ1:39:39 201139  
7401.76Christopher Suter   Flagstaff, AZ1:40:19 194778  
8422.67Jeff Herrera   Tempe, AZ1:42:11 210732  
9443.58Benjamin Webster   Mesa, AZ1:42:16 211019  
10464.49Jesse Rients   Shakopee, MN1:42:34 147524  984 
11485.40Kamden Reedy   Mesa, AZ1:43:01 155036  
12506.31Rene Ortega   Tucson, AZ1:45:17 127318  13 
13527.22Kyle Reedy   Mesa, AZ1:45:17 195891  16 
14548.13John Sawasky   Flagstaff, AZ1:46:02 80638  
15569.04Matthew Connors   Scottsdale, AZ1:47:44 196490  10 
16589.95Christopher Hull   Flagstaff, AZ1:50:05 187518  11 
DNFDomenico Futia   Maple Valley, WAdnf 176687  17 

Women - Single Speed

 Place Points NameCity, StateTime USAC #BibTeam
1Janet Kerby   1:14:19  441 

Women - Marathon

 Place Points NameCity, StateTime USAC #BibTeam
1Margaret Grove   4:03:51  90 

Women - Cat 3 - Junior - 1-10

 Place Points NameCity, StateTime USAC #BibTeam
1Jessica Miller   46:22:00  979 
2Jordan Hunter   52:06:00  311 

Women - Cat 3 - Junior - 11-12

 Place Points NameCity, StateTime USAC #BibTeam
1Olilvia Austin   24:38:00  146 
2Tess Siemens   40:07:00  301 
3Miranda Needham   40:10:00  574 

Women - Cat 3 - Junior - 13-14

 Place Points NameCity, StateTime USAC #BibTeam
1Kendra Wiebers   Mesa, AZ33:02:00 271873  299 
2Amber Stilwell   35:49:00  531 

Women - Cat 3 - Junior - 15-18

 Place Points NameCity, StateTime USAC #BibTeam
1Myia Wood   Mesa, AZ1:01:55 256810  262 

Women - Cat 3 - Junior - 15-19

 Place Points NameCity, StateTime USAC #BibTeam
2Ashley Stilwell   1:18:07  532 

Women - Cat 3 - Junior - 15-20

 Place Points NameCity, StateTime USAC #BibTeam
3Kyia Lively   1:56:49  304 

Women - Cat 3 - Senior - 19-39

 Place Points NameCity, StateTime USAC #BibTeam
1Cydney Rumpf   59:28:00  517 
2552.50Angie Nocella   Surprise, AZ1:08:22 288246  65 
3Jessa Stilwell   1:08:32  533 
4Beth Steen   1:23:02  79 
5Krista Manus   1:42:30  468 
DNFCheryl Ekstrom   Tucson, AZdnf 142179  195 

Women - Cat 3 - Master - 40-49

 Place Points NameCity, StateTime USAC #BibTeam
1Deborah Huntley   1:09:44  436 
2Leslie Brady   1:22:08  904 
3Susanne Cox   1:22:26  26 
4Zoe Cohen   1:23:52  173 
5589.99KONNI ALLEN   Camp Verde, AZ1:25:23 286734  141 

Women - Cat 2 - Senior/master - 19-39

 Place Points NameCity, StateTime USAC #BibTeam
1471.24Cindy McFarland   Glendale, AZ1:16:45 111888  473 
2Tina Stocking   1:20:32  603 
3511.94Hillary Mathis   Oro Valley, AZ1:26:55 260518  469 
4Elaine Seasly   1:37:52  521 
5Norma Dukes   1:47:05  191 
6572.99Kelly McFall   Flagstaff, AZ4:43:00 218180  472 

Women - Cat 2 - Master - 40-49

 Place Points NameCity, StateTime USAC #BibTeam
1Tammy Begler   1:16:58  148 
2535.36Hayley Wihongi   Queen Creek, AZ1:18:08 253346  551 
3Liane Ehrich   1:39:37  194 

Women - Cat 1 - Senior/master - 19-39

 Place Points NameCity, StateTime USAC #BibTeam
1Kris Hanning   2:24:15  974 
2554.64Jennifer Camoriano   Mesa, AZ2:41:26 254808  162 
3590.01Jennifer Pullen   Tucson, AZ4:45:00 129388  67 

Women - Cat 1 - Master - 40-49

 Place Points NameCity, StateTime USAC #BibTeam
1470.40Sue Rawley   Flagstaff, AZ2:21:21 29243  114 
2530.20Deborah Martin-Wille   Flagstaff, AZ2:32:38 196287  119 
3590.00Lisa Hellman   Tucson, AZ3:20:45 287230  430 

Women - Pro

 Place Points NameCity, StateTime USAC #BibTeam
1Sara Stanford   Prescott, AZ2:06:50 210728  18 
2Spring Clegg   Tucson, AZ2:17:34 146109  24 

Report missing or incorrect license numbers

Volkswagen
ShimanoSpyBonk BreakerSierra NevadaUSACDF
UCI USA Cycling is the official governing body for all disciplines of competitive cycling in the United States. The 501c3, membership-based organization aims both to achieve sustained success in international cycling competition and to grow competitive cycling in America while delivering an exceptional customer experience.
View Children's Online Privacy Protection Policy
US Olympic Committee